createdAt,value
2022-10-17T00:01:08.050Z,0
2022-10-17T00:02:24.341Z,0
2022-10-17T00:03:40.624Z,0
2022-10-17T00:04:56.934Z,0
2022-10-17T00:07:29.517Z,0
2022-10-17T00:08:45.809Z,0
2022-10-17T00:10:01.121Z,0
2022-10-17T00:11:17.403Z,0
2022-10-17T00:12:33.703Z,0
2022-10-17T00:15:06.297Z,0
2022-10-17T00:16:22.578Z,0
2022-10-17T00:17:38.882Z,0
2022-10-17T00:18:55.168Z,0
2022-10-17T00:20:11.455Z,0
2022-10-17T00:22:44.059Z,0
2022-10-17T00:24:00.336Z,0
2022-10-17T00:25:16.636Z,0
2022-10-17T00:26:31.948Z,0
2022-10-17T00:27:48.238Z,0
2022-10-17T00:29:04.530Z,0
2022-10-17T00:30:20.828Z,0
2022-10-17T00:31:37.122Z,0
2022-10-17T00:32:53.428Z,0
2022-10-17T00:34:09.703Z,0
2022-10-17T00:35:26.010Z,0
2022-10-17T00:37:58.590Z,0
2022-10-17T00:39:14.897Z,0
2022-10-17T00:40:31.175Z,0
2022-10-17T00:41:47.464Z,0
2022-10-17T00:43:02.773Z,0
2022-10-17T00:45:35.376Z,0
2022-10-17T00:46:51.657Z,0
2022-10-17T00:48:07.949Z,0
2022-10-17T00:49:24.255Z,0
2022-10-17T00:50:40.538Z,0
2022-10-17T00:53:13.134Z,0
2022-10-17T00:54:28.458Z,0
2022-10-17T00:55:44.752Z,0
2022-10-17T00:57:01.039Z,0
2022-10-17T00:58:17.328Z,0
2022-10-17T01:00:49.924Z,0
2022-10-17T01:02:06.216Z,0
2022-10-17T01:03:22.514Z,0
2022-10-17T01:04:38.795Z,0
2022-10-17T01:05:55.100Z,0
2022-10-17T01:07:11.383Z,0
2022-10-17T01:08:27.689Z,0
2022-10-17T01:09:43.976Z,0
2022-10-17T01:10:59.292Z,0
2022-10-17T01:12:15.581Z,0
2022-10-17T01:13:31.865Z,0
2022-10-17T01:16:04.458Z,0
2022-10-17T01:17:20.742Z,0
2022-10-17T01:18:37.053Z,0
2022-10-17T01:19:53.345Z,0
2022-10-17T01:21:09.629Z,0
2022-10-17T01:22:25.928Z,0
2022-10-17T01:24:58.517Z,0
2022-10-17T01:26:14.800Z,0
2022-10-17T01:27:31.099Z,0
2022-10-17T01:28:46.418Z,0
2022-10-17T01:31:19.000Z,0
2022-10-17T01:32:35.301Z,0
2022-10-17T01:33:51.594Z,0
2022-10-17T01:35:07.868Z,0
2022-10-17T01:36:24.172Z,0
2022-10-17T01:38:56.759Z,0
2022-10-17T01:40:13.058Z,0
2022-10-17T01:41:29.348Z,0
2022-10-17T01:42:45.645Z,0
2022-10-17T01:44:01.931Z,0
2022-10-17T01:46:33.531Z,0
2022-10-17T01:47:49.821Z,0
2022-10-17T01:49:06.125Z,0
2022-10-17T01:50:22.426Z,0
2022-10-17T01:51:38.716Z,0
2022-10-17T01:52:55.008Z,0
2022-10-17T01:54:11.302Z,0
2022-10-17T01:55:27.590Z,0
2022-10-17T01:56:43.893Z,0
2022-10-17T01:58:00.184Z,0
2022-10-17T01:59:16.470Z,0
2022-10-17T02:01:49.073Z,0
2022-10-17T02:03:04.377Z,0
2022-10-17T02:04:20.664Z,0
2022-10-17T02:05:36.968Z,0
2022-10-17T02:06:53.250Z,0
2022-10-17T02:09:25.848Z,0
2022-10-17T02:10:42.144Z,0
2022-10-17T02:11:58.421Z,0
2022-10-17T02:13:14.732Z,0
2022-10-17T02:14:31.017Z,0
2022-10-17T02:15:47.321Z,0
2022-10-17T02:17:03.604Z,0
2022-10-17T02:18:19.895Z,0
2022-10-17T02:19:35.203Z,0
2022-10-17T02:20:51.504Z,0
2022-10-17T02:22:07.799Z,0
2022-10-17T02:25:56.681Z,0
2022-10-17T02:27:12.982Z,0
2022-10-17T02:29:45.548Z,0
2022-10-17T02:31:01.855Z,0
2022-10-17T02:32:18.146Z,0
2022-10-17T02:33:34.443Z,0
2022-10-17T02:34:50.727Z,0
2022-10-17T02:36:06.053Z,0
2022-10-17T02:37:22.336Z,0
2022-10-17T02:38:38.637Z,0
2022-10-17T02:39:54.921Z,0
2022-10-17T02:41:11.223Z,0
2022-10-17T02:42:27.511Z,0
2022-10-17T02:43:43.808Z,0
2022-10-17T02:45:00.104Z,0
2022-10-17T02:47:32.687Z,0
2022-10-17T02:48:48.971Z,0
2022-10-17T02:50:05.279Z,0
2022-10-17T02:51:21.573Z,0
2022-10-17T02:52:36.890Z,0
2022-10-17T02:55:09.463Z,0
2022-10-17T02:56:25.774Z,0
2022-10-17T02:57:42.077Z,0
2022-10-17T02:58:58.344Z,0
2022-10-17T03:00:14.659Z,0
2022-10-17T03:04:03.493Z,0
2022-10-17T03:05:19.797Z,0
2022-10-17T03:06:36.081Z,0
2022-10-17T03:07:52.377Z,0
2022-10-17T03:10:24.969Z,0
2022-10-17T03:11:40.283Z,0
2022-10-17T03:12:56.586Z,0
2022-10-17T03:14:12.880Z,0
2022-10-17T03:18:01.751Z,0
2022-10-17T03:19:18.033Z,0
2022-10-17T03:20:34.331Z,0
2022-10-17T03:21:50.628Z,0
2022-10-17T03:23:06.913Z,0
2022-10-17T03:25:39.508Z,0
2022-10-17T03:26:55.789Z,0
2022-10-17T03:29:27.406Z,0
2022-10-17T03:30:43.692Z,0
2022-10-17T03:33:16.287Z,0
2022-10-17T03:34:32.577Z,0
2022-10-17T03:35:48.864Z,0
2022-10-17T03:37:05.156Z,0
2022-10-17T03:38:21.456Z,0
2022-10-17T03:40:54.041Z,0
2022-10-17T03:42:10.334Z,0
2022-10-17T03:43:26.625Z,0
2022-10-17T03:44:42.932Z,0
2022-10-17T03:45:58.238Z,0
2022-10-17T03:48:30.833Z,0
2022-10-17T03:49:47.118Z,0
2022-10-17T03:51:03.409Z,0
2022-10-17T03:52:19.695Z,0
2022-10-17T03:54:52.284Z,0
2022-10-17T03:56:08.578Z,0
2022-10-17T03:57:24.882Z,0
2022-10-17T03:58:41.173Z,0
2022-10-17T03:59:57.466Z,0
2022-10-17T04:01:13.759Z,0
2022-10-17T04:03:45.362Z,0
2022-10-17T04:05:01.667Z,0
2022-10-17T04:06:17.957Z,0
2022-10-17T04:07:34.250Z,0
2022-10-17T04:08:50.549Z,0
2022-10-17T04:11:23.120Z,0
2022-10-17T04:12:39.429Z,0
2022-10-17T04:13:55.706Z,0
2022-10-17T04:15:12.006Z,0
2022-10-17T04:16:28.306Z,0
2022-10-17T04:17:44.591Z,0
2022-10-17T04:18:59.900Z,0
2022-10-17T04:20:16.199Z,0
2022-10-17T04:21:32.491Z,0
2022-10-17T04:22:48.780Z,0
2022-10-17T04:24:05.087Z,0
2022-10-17T04:26:37.670Z,0
2022-10-17T04:27:53.957Z,0
2022-10-17T04:29:10.255Z,0
2022-10-17T04:30:26.543Z,0
2022-10-17T04:31:42.850Z,0
2022-10-17T04:34:15.427Z,0
2022-10-17T04:35:31.725Z,0
2022-10-17T04:36:47.037Z,0
2022-10-17T04:38:03.323Z,0
2022-10-17T04:39:19.611Z,0
2022-10-17T04:40:35.922Z,0
2022-10-17T04:41:52.211Z,0
2022-10-17T04:43:08.497Z,0
2022-10-17T04:44:24.795Z,0
2022-10-17T04:45:41.081Z,0
2022-10-17T04:46:57.378Z,0
2022-10-17T04:48:13.681Z,0
2022-10-17T04:49:29.970Z,0
2022-10-17T04:50:46.268Z,0
2022-10-17T04:52:02.549Z,0
2022-10-17T04:53:17.875Z,0
2022-10-17T04:54:33.187Z,0
2022-10-17T04:57:05.765Z,0
2022-10-17T04:58:22.001Z,1
2022-10-17T04:59:38.308Z,0
2022-10-17T05:00:54.600Z,0
2022-10-17T05:02:10.851Z,1
2022-10-17T05:03:27.092Z,1
2022-10-17T05:04:43.386Z,0
2022-10-17T05:05:59.684Z,0
2022-10-17T05:07:15.933Z,2
2022-10-17T05:08:32.159Z,1
2022-10-17T05:09:47.000Z,1
2022-10-17T05:11:03.667Z,2
2022-10-17T05:12:19.912Z,2
2022-10-17T05:13:36.149Z,5
2022-10-17T05:14:52.381Z,10
2022-10-17T05:16:08.636Z,4
2022-10-17T05:17:24.860Z,5
2022-10-17T05:18:41.100Z,12
2022-10-17T05:19:57.358Z,8
2022-10-17T05:21:12.608Z,12
2022-10-17T05:22:27.872Z,17
2022-10-17T05:23:44.101Z,24
2022-10-17T05:25:00.333Z,30
2022-10-17T05:26:16.587Z,37
2022-10-17T05:27:32.831Z,40
2022-10-17T05:28:49.069Z,49
2022-10-17T05:30:05.299Z,62
2022-10-17T05:31:21.544Z,77
2022-10-17T05:32:37.787Z,92
2022-10-17T05:35:10.259Z,119
2022-10-17T05:36:26.493Z,137
2022-10-17T05:37:42.744Z,163
2022-10-17T05:38:58.986Z,184
2022-10-17T05:40:14.245Z,209
2022-10-17T05:41:30.480Z,234
2022-10-17T05:42:46.710Z,259
2022-10-17T05:44:02.960Z,282
2022-10-17T05:45:19.188Z,312
2022-10-17T05:46:35.439Z,341
2022-10-17T05:47:51.670Z,376
2022-10-17T05:49:07.923Z,419
2022-10-17T05:50:24.144Z,452
2022-10-17T05:51:40.391Z,487
2022-10-17T05:52:56.624Z,514
2022-10-17T05:54:12.874Z,553
2022-10-17T05:55:29.121Z,581
2022-10-17T05:58:00.605Z,651
2022-10-17T05:59:16.845Z,677
2022-10-17T06:00:33.096Z,714
2022-10-17T06:03:05.562Z,820
2022-10-17T06:04:21.816Z,867
2022-10-17T06:05:38.042Z,911
2022-10-17T06:06:54.296Z,949
2022-10-17T06:08:10.519Z,993
2022-10-17T06:09:26.775Z,1040
2022-10-17T06:10:43.009Z,1084
2022-10-17T06:11:59.238Z,1125
2022-10-17T06:13:14.503Z,1167
2022-10-17T06:14:30.750Z,1207
2022-10-17T06:15:46.973Z,1252
2022-10-17T06:17:03.225Z,1299
2022-10-17T06:18:19.457Z,1345
2022-10-17T06:19:35.690Z,1394
2022-10-17T06:20:51.936Z,1445
2022-10-17T06:22:08.187Z,1494
2022-10-17T06:23:24.425Z,1543
2022-10-17T06:24:40.659Z,1594
2022-10-17T06:25:56.899Z,1649
2022-10-17T06:27:13.141Z,1702
2022-10-17T06:28:29.374Z,1757
2022-10-17T06:29:44.626Z,1811
2022-10-17T06:31:00.877Z,1863
2022-10-17T06:32:17.107Z,1913
2022-10-17T06:33:33.358Z,1957
2022-10-17T06:34:49.589Z,1992
2022-10-17T06:36:05.821Z,2020
2022-10-17T06:37:22.066Z,2042
2022-10-17T06:38:38.312Z,2056
2022-10-17T06:39:54.543Z,2063
2022-10-17T06:41:10.788Z,2059
2022-10-17T06:42:27.029Z,2052
2022-10-17T06:43:43.262Z,2040
2022-10-17T06:44:59.517Z,2027
2022-10-17T06:46:14.765Z,2011
2022-10-17T06:47:31.011Z,1993
2022-10-17T06:48:47.249Z,1976
2022-10-17T06:51:19.720Z,1940
2022-10-17T06:52:35.965Z,1924
2022-10-17T06:53:52.202Z,1909
2022-10-17T06:55:08.443Z,1879
2022-10-17T06:56:24.676Z,1836
2022-10-17T06:57:40.922Z,1784
2022-10-17T06:58:57.169Z,1785
2022-10-17T07:00:13.401Z,1793
2022-10-17T07:01:29.648Z,1804
2022-10-17T07:02:44.889Z,1825
2022-10-17T07:04:01.000Z,1821
2022-10-17T07:05:17.387Z,1821
2022-10-17T07:06:33.617Z,1818
2022-10-17T07:07:49.855Z,1809
2022-10-17T07:09:06.094Z,1843
2022-10-17T07:10:22.332Z,1879
2022-10-17T07:11:38.576Z,1903
2022-10-17T07:12:54.806Z,1925
2022-10-17T07:14:11.045Z,1947
2022-10-17T07:15:27.295Z,1979
2022-10-17T07:16:43.530Z,2014
2022-10-17T07:17:59.779Z,2036
2022-10-17T07:19:15.022Z,2055
2022-10-17T07:20:31.279Z,2059
2022-10-17T07:21:47.510Z,2067
2022-10-17T07:23:03.749Z,2088
2022-10-17T07:24:19.981Z,2063
2022-10-17T07:25:36.239Z,2071
2022-10-17T07:26:52.468Z,2136
2022-10-17T07:29:24.956Z,2232
2022-10-17T07:30:41.192Z,2293
2022-10-17T07:31:57.421Z,2340
2022-10-17T07:33:13.662Z,2366
2022-10-17T07:34:29.913Z,2373
2022-10-17T07:37:01.393Z,2382
2022-10-17T07:38:17.649Z,2362
2022-10-17T07:39:33.884Z,2324
2022-10-17T07:40:50.124Z,2302
2022-10-17T07:42:06.373Z,2330
2022-10-17T07:43:22.597Z,2377
2022-10-17T07:44:38.833Z,2437
2022-10-17T07:45:55.077Z,2499
2022-10-17T07:47:11.323Z,2555
2022-10-17T07:48:27.564Z,2610
2022-10-17T07:49:43.794Z,2659
2022-10-17T07:51:00.052Z,2711
2022-10-17T07:52:16.279Z,2771
2022-10-17T07:53:31.546Z,2816
2022-10-17T07:54:47.766Z,2794
2022-10-17T07:56:04.018Z,2741
2022-10-17T07:57:20.266Z,2710
2022-10-17T07:58:36.495Z,2702
2022-10-17T07:59:52.745Z,2652
2022-10-17T08:01:08.982Z,2567
2022-10-17T08:02:25.223Z,2532
2022-10-17T08:03:41.459Z,2511
2022-10-17T08:04:57.698Z,2502
2022-10-17T08:08:46.405Z,2456
2022-10-17T08:10:01.671Z,2448
2022-10-17T08:11:17.914Z,2460
2022-10-17T08:12:34.147Z,2483
2022-10-17T08:15:06.637Z,2438
2022-10-17T08:16:21.885Z,2389
2022-10-17T08:17:37.145Z,2374
2022-10-17T08:18:53.394Z,2363
2022-10-17T08:20:09.617Z,2302
2022-10-17T08:21:25.866Z,2211
2022-10-17T08:22:42.113Z,2109
2022-10-17T08:23:58.345Z,2059
2022-10-17T08:25:14.583Z,2051
2022-10-17T08:26:30.822Z,2106
2022-10-17T08:27:47.074Z,2139
2022-10-17T08:29:03.294Z,2124
2022-10-17T08:30:18.572Z,2152
2022-10-17T08:31:33.829Z,2195
2022-10-17T08:32:50.060Z,2257
2022-10-17T08:34:06.302Z,2330
2022-10-17T08:35:22.545Z,2386
2022-10-17T08:36:38.777Z,2418
2022-10-17T08:37:55.010Z,2415
2022-10-17T08:39:11.266Z,2395
2022-10-17T08:40:27.509Z,2433
2022-10-17T08:41:43.739Z,2490
2022-10-17T08:42:59.974Z,2500
2022-10-17T08:44:16.217Z,2498
2022-10-17T08:45:32.467Z,2591
2022-10-17T08:46:48.697Z,2707
2022-10-17T08:48:03.964Z,2708
2022-10-17T08:49:20.183Z,2673
2022-10-17T08:50:36.443Z,2726
2022-10-17T08:51:52.675Z,2851
2022-10-17T08:53:08.912Z,2927
2022-10-17T08:54:25.146Z,2880
2022-10-17T08:55:41.391Z,2808
2022-10-17T08:56:57.634Z,2815
2022-10-17T08:58:13.868Z,2865
2022-10-17T08:59:30.112Z,2937
2022-10-17T09:00:46.355Z,2954
2022-10-17T09:02:02.597Z,2973
2022-10-17T09:03:18.821Z,2974
2022-10-17T09:04:34.093Z,2972
2022-10-17T09:05:50.330Z,3011
2022-10-17T09:07:06.559Z,3092
2022-10-17T09:09:39.036Z,3270
2022-10-17T09:10:55.280Z,3293
2022-10-17T09:13:27.763Z,3357
2022-10-17T09:14:44.010Z,3310
2022-10-17T09:16:00.237Z,3227
2022-10-17T09:17:16.488Z,3180
2022-10-17T09:18:32.734Z,3093
2022-10-17T09:19:48.962Z,2960
2022-10-17T09:21:04.227Z,2850
2022-10-17T09:23:36.704Z,2636
2022-10-17T09:24:51.972Z,2534
2022-10-17T09:26:07.230Z,2421
2022-10-17T09:27:23.461Z,2319
2022-10-17T09:28:39.709Z,2197
2022-10-17T09:29:55.944Z,2037
2022-10-17T09:31:12.187Z,1915
2022-10-17T09:32:28.420Z,1838
2022-10-17T09:33:44.662Z,1770
2022-10-17T09:35:00.910Z,1722
2022-10-17T09:36:17.144Z,1691
2022-10-17T09:37:33.379Z,1687
2022-10-17T09:38:48.651Z,1785
2022-10-17T09:40:04.881Z,1998
2022-10-17T09:41:20.147Z,2171
2022-10-17T09:42:36.373Z,2240
2022-10-17T09:43:52.629Z,2273
2022-10-17T09:45:08.863Z,2298
2022-10-17T09:46:25.099Z,2328
2022-10-17T09:47:41.330Z,2354
2022-10-17T09:48:57.570Z,2388
2022-10-17T09:50:13.817Z,2419
2022-10-17T09:51:30.056Z,2461
2022-10-17T09:52:46.298Z,2507
2022-10-17T09:54:02.544Z,2557
2022-10-17T09:56:35.029Z,2691
2022-10-17T09:57:50.279Z,2769
2022-10-17T09:59:06.522Z,2855
2022-10-17T10:00:22.763Z,2952
2022-10-17T10:01:38.984Z,3043
2022-10-17T10:02:55.239Z,3140
2022-10-17T10:04:11.481Z,3228
2022-10-17T10:05:27.706Z,3299
2022-10-17T10:06:43.961Z,3355
2022-10-17T10:08:00.197Z,3385
2022-10-17T10:09:16.430Z,3399
2022-10-17T10:10:32.682Z,3386
2022-10-17T10:11:48.901Z,3356
2022-10-17T10:13:05.149Z,3310
2022-10-17T10:14:20.407Z,3259
2022-10-17T10:15:36.650Z,3199
2022-10-17T10:16:52.886Z,3139
2022-10-17T10:18:09.120Z,3077
2022-10-17T10:19:25.368Z,3016
2022-10-17T10:20:41.607Z,2963
2022-10-17T10:21:57.845Z,2912
2022-10-17T10:23:14.089Z,2870
2022-10-17T10:24:30.316Z,2834
2022-10-17T10:25:46.571Z,2807
2022-10-17T10:27:02.811Z,2785
2022-10-17T10:28:19.049Z,2777
2022-10-17T10:29:35.286Z,2774
2022-10-17T10:30:50.531Z,2773
2022-10-17T10:32:06.779Z,2780
2022-10-17T10:33:23.030Z,2790
2022-10-17T10:34:39.256Z,2799
2022-10-17T10:35:55.504Z,2798
2022-10-17T10:37:11.729Z,2802
2022-10-17T10:38:27.970Z,2804
2022-10-17T10:39:44.209Z,2804
2022-10-17T10:41:00.460Z,2809
2022-10-17T10:42:16.698Z,2804
2022-10-17T10:43:32.939Z,2816
2022-10-17T10:44:49.172Z,2828
2022-10-17T10:46:05.413Z,2815
2022-10-17T10:47:20.679Z,2766
2022-10-17T10:48:36.921Z,2687
2022-10-17T10:49:53.150Z,2587
2022-10-17T10:51:09.393Z,2537
2022-10-17T10:52:25.625Z,2597
2022-10-17T10:53:41.867Z,2716
2022-10-17T10:54:58.119Z,2838
2022-10-17T10:56:14.349Z,2974
2022-10-17T10:57:30.596Z,3014
2022-10-17T10:58:46.822Z,2975
2022-10-17T11:00:03.070Z,3031
2022-10-17T11:01:19.307Z,3184
2022-10-17T11:02:35.549Z,3337
2022-10-17T11:03:50.807Z,3517
2022-10-17T11:05:07.041Z,3694
2022-10-17T11:06:23.295Z,3806
2022-10-17T11:07:39.516Z,3860
2022-10-17T11:08:55.763Z,3793
2022-10-17T11:10:12.014Z,3659
2022-10-17T11:11:28.236Z,3589
2022-10-17T11:12:44.492Z,3546
2022-10-17T11:14:00.728Z,3511
2022-10-17T11:15:16.955Z,3535
2022-10-17T11:19:05.677Z,3670
2022-10-17T11:20:20.950Z,3716
2022-10-17T11:21:37.173Z,3793
2022-10-17T11:22:53.415Z,3899
2022-10-17T11:24:09.657Z,3992
2022-10-17T11:25:25.896Z,4096
2022-10-17T11:26:42.145Z,4177
2022-10-17T11:27:58.379Z,4187
2022-10-17T11:29:14.620Z,4257
2022-10-17T11:30:30.857Z,4278
2022-10-17T11:31:47.103Z,4217
2022-10-17T11:33:03.337Z,4288
2022-10-17T11:34:19.582Z,4369
2022-10-17T11:35:35.818Z,4352
2022-10-17T11:36:51.065Z,4288
2022-10-17T11:38:07.317Z,4212
2022-10-17T11:40:39.801Z,4086
2022-10-17T11:41:55.065Z,4024
2022-10-17T11:43:10.320Z,3929
2022-10-17T11:44:26.556Z,3842
2022-10-17T11:45:42.795Z,3785
2022-10-17T11:46:59.036Z,3707
2022-10-17T11:48:15.272Z,3612
2022-10-17T11:49:31.502Z,3562
2022-10-17T11:50:47.746Z,3529
2022-10-17T11:52:03.992Z,3502
2022-10-17T11:53:20.232Z,3474
2022-10-17T11:54:36.479Z,3407
2022-10-17T11:55:51.735Z,3305
2022-10-17T11:57:07.978Z,3247
2022-10-17T11:58:23.000Z,3259
2022-10-17T11:59:39.465Z,3253
2022-10-17T12:00:55.703Z,3204
2022-10-17T12:02:11.955Z,3161
2022-10-17T12:03:28.178Z,3156
2022-10-17T12:04:44.435Z,3215
2022-10-17T12:06:00.669Z,3283
2022-10-17T12:07:16.907Z,3329
2022-10-17T12:08:33.154Z,3359
2022-10-17T12:09:49.377Z,3397
2022-10-17T12:11:05.626Z,3437
2022-10-17T12:12:21.860Z,3481
2022-10-17T12:13:38.111Z,3513
2022-10-17T12:14:53.358Z,3538
2022-10-17T12:16:09.607Z,3561
2022-10-17T12:17:25.841Z,3596
2022-10-17T12:18:42.085Z,3621
2022-10-17T12:19:58.324Z,3657
2022-10-17T12:21:14.564Z,3713
2022-10-17T12:22:30.789Z,3760
2022-10-17T12:23:47.044Z,3828
2022-10-17T12:25:03.288Z,3909
2022-10-17T12:26:19.520Z,3986
2022-10-17T12:27:35.764Z,4075
2022-10-17T12:28:52.006Z,4134
2022-10-17T12:30:08.237Z,4189
2022-10-17T12:31:23.485Z,4255
2022-10-17T12:33:55.974Z,4404
2022-10-17T12:35:12.212Z,4484
2022-10-17T12:36:28.452Z,4549
2022-10-17T12:37:44.703Z,4592
2022-10-17T12:39:00.927Z,4684
2022-10-17T12:40:17.165Z,4722
2022-10-17T12:41:33.416Z,4706
2022-10-17T12:42:49.659Z,4740
2022-10-17T12:44:05.895Z,4729
2022-10-17T12:45:22.133Z,4769
2022-10-17T12:46:38.380Z,4765
2022-10-17T12:47:53.628Z,4721
2022-10-17T12:49:09.875Z,4625
2022-10-17T12:50:26.117Z,4531
2022-10-17T12:52:58.584Z,4331
2022-10-17T12:54:14.823Z,4300
2022-10-17T12:55:31.077Z,4292
2022-10-17T12:56:47.304Z,4310
2022-10-17T12:58:03.541Z,4328
2022-10-17T13:00:36.037Z,4262
2022-10-17T13:01:52.274Z,4217
2022-10-17T13:04:24.748Z,4170
2022-10-17T13:05:40.005Z,4141
2022-10-17T13:06:55.266Z,4089
2022-10-17T13:08:11.513Z,4015
2022-10-17T13:09:27.739Z,3911
2022-10-17T13:13:16.463Z,3438
2022-10-17T13:14:32.699Z,3283
2022-10-17T13:15:48.938Z,3179
2022-10-17T13:17:05.183Z,3104
2022-10-17T13:19:37.666Z,2976
2022-10-17T13:20:53.900Z,2900
2022-10-17T13:22:10.135Z,2794
2022-10-17T13:23:25.405Z,2691
2022-10-17T13:24:40.668Z,2607
2022-10-17T13:25:56.894Z,2533
2022-10-17T13:27:13.136Z,2473
2022-10-17T13:28:29.387Z,2417
2022-10-17T13:29:45.608Z,2384
2022-10-17T13:31:01.852Z,2360
2022-10-17T13:32:18.093Z,2346
2022-10-17T13:33:34.344Z,2336
2022-10-17T13:34:50.580Z,2325
2022-10-17T13:36:06.817Z,2316
2022-10-17T13:38:38.327Z,2258
2022-10-17T13:39:53.575Z,2248
2022-10-17T13:42:26.052Z,2240
2022-10-17T13:43:42.298Z,2230
2022-10-17T13:44:58.541Z,2219
2022-10-17T13:46:14.789Z,2225
2022-10-17T13:47:31.017Z,2225
2022-10-17T13:50:03.501Z,2208
2022-10-17T13:51:19.739Z,2206
2022-10-17T13:52:35.968Z,2242
2022-10-17T13:53:52.225Z,2242
2022-10-17T13:55:08.455Z,2222
2022-10-17T13:56:23.712Z,2197
2022-10-17T13:57:39.954Z,2174
2022-10-17T13:58:56.194Z,2151
2022-10-17T14:00:12.431Z,2132
2022-10-17T14:01:28.667Z,2110
2022-10-17T14:02:44.923Z,2071
2022-10-17T14:04:01.146Z,2044
2022-10-17T14:05:17.391Z,2030
2022-10-17T14:06:33.625Z,2020
2022-10-17T14:07:49.876Z,2012
2022-10-17T14:09:05.144Z,2016
2022-10-17T14:10:20.395Z,2027
2022-10-17T14:12:52.874Z,2013
2022-10-17T14:14:09.111Z,2021
2022-10-17T14:15:25.358Z,2035
2022-10-17T14:16:41.595Z,2040
2022-10-17T14:17:57.827Z,2043
2022-10-17T14:20:30.310Z,2066
2022-10-17T14:21:46.550Z,2055
2022-10-17T14:23:02.795Z,2039
2022-10-17T14:24:19.031Z,2019
2022-10-17T14:25:34.286Z,2011
2022-10-17T14:28:05.775Z,1990
2022-10-17T14:29:22.017Z,1974
2022-10-17T14:30:38.270Z,1970
2022-10-17T14:31:54.502Z,1980
2022-10-17T14:33:10.742Z,1998
2022-10-17T14:34:26.978Z,2027
2022-10-17T14:35:43.226Z,2052
2022-10-17T14:36:59.468Z,2065
2022-10-17T14:38:15.696Z,2087
2022-10-17T14:39:31.947Z,2130
2022-10-17T14:40:47.209Z,2183
2022-10-17T14:43:19.681Z,2201
2022-10-17T14:44:34.938Z,2176
2022-10-17T14:45:51.184Z,2135
2022-10-17T14:47:07.413Z,2078
2022-10-17T14:48:23.660Z,2016
2022-10-17T14:49:39.900Z,1965
2022-10-17T14:50:56.149Z,1919
2022-10-17T14:52:12.390Z,1883
2022-10-17T14:54:44.852Z,1813
2022-10-17T14:56:01.090Z,1795
2022-10-17T14:57:17.346Z,1779
2022-10-17T14:58:33.572Z,1761
2022-10-17T15:01:06.055Z,1698
2022-10-17T15:02:21.319Z,1658
2022-10-17T15:03:36.581Z,1621
2022-10-17T15:04:52.822Z,1592
2022-10-17T15:06:09.049Z,1558
2022-10-17T15:07:25.286Z,1526
2022-10-17T15:08:41.543Z,1495
2022-10-17T15:09:57.773Z,1468
2022-10-17T15:11:14.006Z,1444
2022-10-17T15:12:30.248Z,1421
2022-10-17T15:13:46.485Z,1394
2022-10-17T15:15:02.736Z,1365
2022-10-17T15:16:17.998Z,1344
2022-10-17T15:17:33.250Z,1318
2022-10-17T15:21:21.976Z,1256
2022-10-17T15:22:38.206Z,1238
2022-10-17T15:23:54.443Z,1216
2022-10-17T15:25:10.696Z,1190
2022-10-17T15:26:26.924Z,1162
2022-10-17T15:28:59.406Z,1104
2022-10-17T15:30:15.655Z,1072
2022-10-17T15:32:48.136Z,1013
2022-10-17T15:34:03.396Z,986
2022-10-17T15:36:35.865Z,931
2022-10-17T15:37:51.117Z,909
2022-10-17T15:39:06.384Z,885
2022-10-17T15:40:22.623Z,864
2022-10-17T15:41:38.872Z,846
2022-10-17T15:45:27.588Z,796
2022-10-17T15:46:43.827Z,774
2022-10-17T15:48:00.065Z,744
2022-10-17T15:49:16.292Z,717
2022-10-17T15:51:48.788Z,652
2022-10-17T15:53:05.016Z,624
2022-10-17T15:54:21.251Z,600
2022-10-17T15:55:36.517Z,575
2022-10-17T15:56:52.749Z,547
2022-10-17T15:59:25.234Z,478
2022-10-17T16:01:57.711Z,397
2022-10-17T16:03:13.951Z,361
2022-10-17T16:04:30.204Z,325
2022-10-17T16:07:02.671Z,254
2022-10-17T16:08:18.914Z,222
2022-10-17T16:12:07.642Z,150
2022-10-17T16:14:39.129Z,120
2022-10-17T16:15:55.359Z,106
2022-10-17T16:17:11.611Z,95
2022-10-17T16:18:27.853Z,82
2022-10-17T16:19:44.097Z,75
2022-10-17T16:22:16.578Z,54
2022-10-17T16:23:32.800Z,46
2022-10-17T16:24:49.051Z,40
2022-10-17T16:26:05.296Z,33
2022-10-17T16:27:21.523Z,28
2022-10-17T16:28:37.767Z,23
2022-10-17T16:29:53.027Z,20
2022-10-17T16:31:09.270Z,14
2022-10-17T16:32:25.511Z,12
2022-10-17T16:33:41.744Z,9
2022-10-17T16:36:14.220Z,6
2022-10-17T16:38:46.698Z,3
2022-10-17T16:40:02.943Z,2
2022-10-17T16:41:19.192Z,2
2022-10-17T16:42:35.412Z,2
2022-10-17T16:43:51.659Z,1
2022-10-17T16:45:07.896Z,1
2022-10-17T16:46:23.210Z,0
2022-10-17T16:47:39.502Z,0
2022-10-17T16:48:55.802Z,0
2022-10-17T16:50:12.093Z,0
2022-10-17T16:52:44.684Z,0
2022-10-17T16:54:00.983Z,0
2022-10-17T16:55:17.259Z,0
2022-10-17T16:56:33.555Z,0
2022-10-17T16:57:49.849Z,0
2022-10-17T17:01:38.739Z,0
2022-10-17T17:02:54.049Z,0
2022-10-17T17:04:10.340Z,0
2022-10-17T17:05:26.635Z,0
2022-10-17T17:06:42.918Z,0
2022-10-17T17:07:59.220Z,0
2022-10-17T17:09:15.505Z,0
2022-10-17T17:10:31.818Z,0
2022-10-17T17:11:48.097Z,0
2022-10-17T17:13:04.400Z,0
2022-10-17T17:15:36.992Z,0
2022-10-17T17:16:53.270Z,0
2022-10-17T17:18:09.566Z,0
2022-10-17T17:19:24.889Z,0
2022-10-17T17:20:41.186Z,0
2022-10-17T17:21:57.474Z,0
2022-10-17T17:23:13.761Z,0
2022-10-17T17:24:30.055Z,0
2022-10-17T17:25:46.344Z,0
2022-10-17T17:27:02.641Z,0
2022-10-17T17:28:17.958Z,0
2022-10-17T17:29:34.260Z,0
2022-10-17T17:30:49.555Z,0
2022-10-17T17:32:05.866Z,0
2022-10-17T17:33:22.147Z,0
2022-10-17T17:34:38.436Z,0
2022-10-17T17:35:54.750Z,0
2022-10-17T17:37:11.035Z,0
2022-10-17T17:38:27.320Z,0
2022-10-17T17:39:43.618Z,0
2022-10-17T17:40:59.916Z,0
2022-10-17T17:43:31.522Z,0
2022-10-17T17:44:46.825Z,0
2022-10-17T17:46:03.132Z,0
2022-10-17T17:47:19.426Z,0
2022-10-17T17:48:35.720Z,0
2022-10-17T17:49:51.999Z,0
2022-10-17T17:52:24.594Z,0
2022-10-17T17:53:39.904Z,0
2022-10-17T17:54:56.214Z,0
2022-10-17T17:56:11.519Z,0
2022-10-17T17:57:27.804Z,0
2022-10-17T17:58:44.113Z,0
2022-10-17T18:01:16.704Z,0
2022-10-17T18:02:32.992Z,0
2022-10-17T18:05:05.584Z,0
2022-10-17T18:06:21.875Z,0
2022-10-17T18:08:54.455Z,0
2022-10-17T18:10:10.756Z,0
2022-10-17T18:11:27.036Z,0
2022-10-17T18:12:42.348Z,0
2022-10-17T18:13:58.655Z,0
2022-10-17T18:17:47.540Z,0
2022-10-17T18:19:03.831Z,0
2022-10-17T18:20:20.108Z,0
2022-10-17T18:21:36.410Z,0
2022-10-17T18:24:08.997Z,0
2022-10-17T18:25:25.283Z,0
2022-10-17T18:26:41.586Z,0
2022-10-17T18:27:57.888Z,0
2022-10-17T18:33:02.045Z,0
2022-10-17T18:34:18.343Z,0
2022-10-17T18:35:34.631Z,0
2022-10-17T18:36:50.931Z,0
2022-10-17T18:39:23.508Z,0
2022-10-17T18:40:39.808Z,0
2022-10-17T18:43:12.395Z,0
2022-10-17T18:44:28.690Z,0
2022-10-17T18:47:01.272Z,0
2022-10-17T18:48:17.567Z,0
2022-10-17T18:49:32.872Z,0
2022-10-17T18:50:49.181Z,0
2022-10-17T18:52:05.467Z,0
2022-10-17T18:55:54.339Z,0
2022-10-17T18:57:10.638Z,0
2022-10-17T18:58:26.931Z,0
2022-10-17T18:59:43.223Z,0
2022-10-17T19:02:15.825Z,0
2022-10-17T19:04:48.403Z,0
2022-10-17T19:06:03.721Z,0
2022-10-17T19:07:20.008Z,0
2022-10-17T19:09:52.586Z,0
2022-10-17T19:11:08.883Z,0
2022-10-17T19:12:25.188Z,0
2022-10-17T19:13:41.478Z,0
2022-10-17T19:14:57.782Z,0
2022-10-17T19:17:30.350Z,0
2022-10-17T19:18:46.651Z,0
2022-10-17T19:20:02.948Z,0
2022-10-17T19:21:19.232Z,0
2022-10-17T19:22:34.544Z,0
2022-10-17T19:25:07.143Z,0
2022-10-17T19:26:23.435Z,0
2022-10-17T19:27:39.729Z,0
2022-10-17T19:28:56.020Z,0
2022-10-17T19:30:12.319Z,0
2022-10-17T19:32:44.895Z,0
2022-10-17T19:34:01.201Z,0
2022-10-17T19:35:17.475Z,0
2022-10-17T19:36:33.772Z,0
2022-10-17T19:37:50.082Z,0
2022-10-17T19:40:21.678Z,0
2022-10-17T19:41:37.980Z,0
2022-10-17T19:42:54.262Z,0
2022-10-17T19:44:10.561Z,0
2022-10-17T19:47:59.429Z,0
2022-10-17T19:49:15.739Z,0
2022-10-17T19:50:32.033Z,0
2022-10-17T19:51:48.317Z,0
2022-10-17T19:53:04.605Z,0
2022-10-17T19:54:20.907Z,0
2022-10-17T19:55:36.224Z,0
2022-10-17T19:56:52.513Z,0
2022-10-17T19:58:08.809Z,0
2022-10-17T19:59:25.100Z,0
2022-10-17T20:00:41.395Z,0
2022-10-17T20:03:13.988Z,0
2022-10-17T20:04:30.278Z,0
2022-10-17T20:05:46.565Z,0
2022-10-17T20:07:02.853Z,0
2022-10-17T20:12:08.043Z,0